Disclaimer

Please do not use the information listed here in-flight or in-navigation, as they are not provided to us by the airports but are provided by volunteers, so they might be outdated.

Search


Regions


Airport information page

Radio informations:
TYUMEN START - 118.2 MHz
TYUMEN KRUG - 120.4 MHz
TYUMEN TAXIING - 119.0 MHz
TYUMEN ATIS - 121.7 MHz
TYUMEN APP - 126.1 MHz

Airport informations:
Latitude: 57° 11' 22.44" N
Longitude: 065° 19' 27.48" E
Elevation: 378 feet - 115 meters
Operating hours: 24 hour operations
Operating agency: Civil government, landing fees and diplomatic clearance may be required
Timezone: UTC+6(+7DT) - Last Sunday in March to last Sunday in October
Fuel: N/A

Runway information:
03/21 - 9852 x 148 feet< - >3003 x 45 meters
12/30 - 8871 x 164 feet< - >2704 x 50 meters

Recent METARs:
USTR 210030Z 24005MPS 9999 FEW016CB OVC023 M02/M04 Q1006 R21/420163 NOSIG RMK QFE745/0994
USTR 210100Z 23005MPS 9999 FEW016CB OVC023 M02/M04 Q1006 R21/420163 NOSIG RMK QFE745/0993
USTR 210130Z 23005MPS 9999 FEW016CB OVC026 M02/M04 Q1005 R21/420163 NOSIG RMK QFE744/0993

Airport on the map: